sensor_id;sensor_type;location;lat;lon;timestamp;P1;durP1;ratioP1;P2;durP2;ratioP2
7557;SDS011;3820;51.098;13.716;2022-10-18T00:02:09;22.80;;;10.18;;
7557;SDS011;3820;51.098;13.716;2022-10-18T00:04:37;25.27;;;12.40;;
7557;SDS011;3820;51.098;13.716;2022-10-18T00:07:05;26.67;;;11.45;;
7557;SDS011;3820;51.098;13.716;2022-10-18T00:09:33;24.73;;;10.85;;
7557;SDS011;3820;51.098;13.716;2022-10-18T00:12:00;24.52;;;10.57;;
7557;SDS011;3820;51.098;13.716;2022-10-18T00:14:26;22.40;;;10.37;;
7557;SDS011;3820;51.098;13.716;2022-10-18T00:16:53;23.83;;;11.10;;
7557;SDS011;3820;51.098;13.716;2022-10-18T00:19:19;22.75;;;11.02;;
7557;SDS011;3820;51.098;13.716;2022-10-18T00:21:49;21.98;;;10.90;;
7557;SDS011;3820;51.098;13.716;2022-10-18T00:24:16;22.10;;;9.75;;
7557;SDS011;3820;51.098;13.716;2022-10-18T00:26:43;23.17;;;11.13;;
7557;SDS011;3820;51.098;13.716;2022-10-18T00:29:12;22.13;;;10.50;;
7557;SDS011;3820;51.098;13.716;2022-10-18T00:31:39;23.55;;;9.98;;
7557;SDS011;3820;51.098;13.716;2022-10-18T00:34:12;25.27;;;10.85;;
7557;SDS011;3820;51.098;13.716;2022-10-18T00:36:40;23.97;;;10.63;;
7557;SDS011;3820;51.098;13.716;2022-10-18T00:39:08;22.87;;;11.60;;
7557;SDS011;3820;51.098;13.716;2022-10-18T00:41:36;27.02;;;12.20;;
7557;SDS011;3820;51.098;13.716;2022-10-18T00:44:05;23.10;;;10.68;;
7557;SDS011;3820;51.098;13.716;2022-10-18T00:46:52;25.95;;;11.55;;
7557;SDS011;3820;51.098;13.716;2022-10-18T00:49:23;25.40;;;11.60;;
7557;SDS011;3820;51.098;13.716;2022-10-18T00:51:55;24.38;;;11.55;;
7557;SDS011;3820;51.098;13.716;2022-10-18T00:54:24;26.30;;;11.33;;
7557;SDS011;3820;51.098;13.716;2022-10-18T00:56:52;26.92;;;11.85;;
7557;SDS011;3820;51.098;13.716;2022-10-18T00:59:19;23.90;;;10.95;;
7557;SDS011;3820;51.098;13.716;2022-10-18T01:01:45;22.55;;;10.25;;
7557;SDS011;3820;51.098;13.716;2022-10-18T01:04:12;23.50;;;11.02;;
7557;SDS011;3820;51.098;13.716;2022-10-18T01:06:43;22.83;;;11.10;;
7557;SDS011;3820;51.098;13.716;2022-10-18T01:09:29;25.27;;;12.00;;
7557;SDS011;3820;51.098;13.716;2022-10-18T01:15:12;22.83;;;11.90;;
7557;SDS011;3820;51.098;13.716;2022-10-18T01:23:43;20.10;;;10.10;;
7557;SDS011;3820;51.098;13.716;2022-10-18T01:26:43;21.37;;;11.50;;
7557;SDS011;3820;51.098;13.716;2022-10-18T01:32:51;25.30;;;11.05;;
7557;SDS011;3820;51.098;13.716;2022-10-18T01:35:20;22.90;;;11.15;;
7557;SDS011;3820;51.098;13.716;2022-10-18T01:37:49;21.40;;;10.93;;
7557;SDS011;3820;51.098;13.716;2022-10-18T01:40:18;23.83;;;11.30;;
7557;SDS011;3820;51.098;13.716;2022-10-18T01:42:46;23.15;;;10.90;;
7557;SDS011;3820;51.098;13.716;2022-10-18T01:45:14;24.57;;;11.07;;
7557;SDS011;3820;51.098;13.716;2022-10-18T01:47:41;23.40;;;11.32;;
7557;SDS011;3820;51.098;13.716;2022-10-18T01:50:10;24.13;;;11.00;;
7557;SDS011;3820;51.098;13.716;2022-10-18T01:52:48;24.20;;;11.00;;
7557;SDS011;3820;51.098;13.716;2022-10-18T01:55:16;18.10;;;9.48;;
7557;SDS011;3820;51.098;13.716;2022-10-18T01:57:46;24.88;;;10.80;;
7557;SDS011;3820;51.098;13.716;2022-10-18T02:00:27;20.52;;;9.88;;
7557;SDS011;3820;51.098;13.716;2022-10-18T02:03:16;22.38;;;10.00;;
7557;SDS011;3820;51.098;13.716;2022-10-18T02:08:35;23.27;;;10.40;;
7557;SDS011;3820;51.098;13.716;2022-10-18T02:11:13;21.17;;;11.07;;
7557;SDS011;3820;51.098;13.716;2022-10-18T02:13:48;20.55;;;9.93;;
7557;SDS011;3820;51.098;13.716;2022-10-18T02:16:29;25.77;;;10.80;;
7557;SDS011;3820;51.098;13.716;2022-10-18T02:19:01;22.27;;;10.10;;
7557;SDS011;3820;51.098;13.716;2022-10-18T02:21:31;27.63;;;11.05;;
7557;SDS011;3820;51.098;13.716;2022-10-18T02:23:58;20.63;;;10.67;;
7557;SDS011;3820;51.098;13.716;2022-10-18T02:26:26;21.80;;;10.63;;
7557;SDS011;3820;51.098;13.716;2022-10-18T02:28:52;25.30;;;10.02;;
7557;SDS011;3820;51.098;13.716;2022-10-18T02:31:20;27.92;;;11.13;;
7557;SDS011;3820;51.098;13.716;2022-10-18T02:36:37;23.33;;;11.33;;
7557;SDS011;3820;51.098;13.716;2022-10-18T02:39:11;24.27;;;10.80;;
7557;SDS011;3820;51.098;13.716;2022-10-18T02:41:40;21.15;;;10.55;;
7557;SDS011;3820;51.098;13.716;2022-10-18T02:44:06;23.88;;;11.40;;
7557;SDS011;3820;51.098;13.716;2022-10-18T02:46:33;24.63;;;10.53;;
7557;SDS011;3820;51.098;13.716;2022-10-18T02:48:59;24.92;;;10.85;;
7557;SDS011;3820;51.098;13.716;2022-10-18T02:51:26;24.40;;;11.27;;
7557;SDS011;3820;51.098;13.716;2022-10-18T02:53:52;28.63;;;10.77;;
7557;SDS011;3820;51.098;13.716;2022-10-18T02:56:18;27.80;;;11.95;;
7557;SDS011;3820;51.098;13.716;2022-10-18T02:58:45;26.73;;;11.17;;
7557;SDS011;3820;51.098;13.716;2022-10-18T03:01:11;26.00;;;12.60;;
7557;SDS011;3820;51.098;13.716;2022-10-18T03:03:38;27.53;;;11.10;;
7557;SDS011;3820;51.098;13.716;2022-10-18T03:06:04;28.23;;;10.97;;
7557;SDS011;3820;51.098;13.716;2022-10-18T03:08:31;21.53;;;10.40;;
7557;SDS011;3820;51.098;13.716;2022-10-18T03:10:57;31.43;;;10.87;;
7557;SDS011;3820;51.098;13.716;2022-10-18T03:13:24;22.75;;;10.70;;
7557;SDS011;3820;51.098;13.716;2022-10-18T03:15:50;22.77;;;10.63;;
7557;SDS011;3820;51.098;13.716;2022-10-18T03:18:17;21.37;;;11.20;;
7557;SDS011;3820;51.098;13.716;2022-10-18T03:20:43;23.52;;;11.30;;
7557;SDS011;3820;51.098;13.716;2022-10-18T03:23:10;22.80;;;11.37;;
7557;SDS011;3820;51.098;13.716;2022-10-18T03:25:36;23.30;;;10.30;;
7557;SDS011;3820;51.098;13.716;2022-10-18T03:28:08;22.73;;;11.32;;
7557;SDS011;3820;51.098;13.716;2022-10-18T03:30:34;23.50;;;10.40;;
7557;SDS011;3820;51.098;13.716;2022-10-18T03:33:00;23.08;;;10.95;;
7557;SDS011;3820;51.098;13.716;2022-10-18T03:35:27;26.70;;;10.87;;
7557;SDS011;3820;51.098;13.716;2022-10-18T03:37:53;25.30;;;11.30;;
7557;SDS011;3820;51.098;13.716;2022-10-18T03:40:20;23.53;;;12.10;;
7557;SDS011;3820;51.098;13.716;2022-10-18T03:42:46;20.77;;;11.07;;
7557;SDS011;3820;51.098;13.716;2022-10-18T03:45:14;27.00;;;12.23;;
7557;SDS011;3820;51.098;13.716;2022-10-18T03:47:40;24.03;;;10.93;;
7557;SDS011;3820;51.098;13.716;2022-10-18T03:50:07;26.13;;;11.20;;
7557;SDS011;3820;51.098;13.716;2022-10-18T03:52:36;26.67;;;12.87;;
7557;SDS011;3820;51.098;13.716;2022-10-18T03:55:02;32.27;;;13.93;;
7557;SDS011;3820;51.098;13.716;2022-10-18T03:57:29;32.25;;;12.70;;
7557;SDS011;3820;51.098;13.716;2022-10-18T03:59:55;23.23;;;11.73;;
7557;SDS011;3820;51.098;13.716;2022-10-18T04:02:22;26.93;;;12.20;;
7557;SDS011;3820;51.098;13.716;2022-10-18T04:04:48;30.07;;;13.87;;
7557;SDS011;3820;51.098;13.716;2022-10-18T04:07:15;25.10;;;10.90;;
7557;SDS011;3820;51.098;13.716;2022-10-18T04:09:41;28.48;;;12.27;;
7557;SDS011;3820;51.098;13.716;2022-10-18T04:12:09;30.33;;;13.07;;
7557;SDS011;3820;51.098;13.716;2022-10-18T04:14:35;32.38;;;13.30;;
7557;SDS011;3820;51.098;13.716;2022-10-18T04:17:02;30.65;;;13.43;;
7557;SDS011;3820;51.098;13.716;2022-10-18T04:19:29;30.30;;;13.02;;
7557;SDS011;3820;51.098;13.716;2022-10-18T04:21:56;27.05;;;10.80;;
7557;SDS011;3820;51.098;13.716;2022-10-18T04:24:22;28.52;;;12.57;;
7557;SDS011;3820;51.098;13.716;2022-10-18T04:26:49;23.60;;;12.00;;
7557;SDS011;3820;51.098;13.716;2022-10-18T04:29:15;33.60;;;12.10;;
7557;SDS011;3820;51.098;13.716;2022-10-18T04:31:42;25.08;;;11.23;;
7557;SDS011;3820;51.098;13.716;2022-10-18T04:34:09;23.92;;;11.50;;
7557;SDS011;3820;51.098;13.716;2022-10-18T04:36:36;25.67;;;12.38;;
7557;SDS011;3820;51.098;13.716;2022-10-18T04:39:02;26.60;;;13.45;;
7557;SDS011;3820;51.098;13.716;2022-10-18T04:41:29;27.23;;;12.57;;
7557;SDS011;3820;51.098;13.716;2022-10-18T04:43:55;24.23;;;11.40;;
7557;SDS011;3820;51.098;13.716;2022-10-18T04:46:22;26.23;;;12.40;;
7557;SDS011;3820;51.098;13.716;2022-10-18T04:48:49;24.98;;;12.35;;
7557;SDS011;3820;51.098;13.716;2022-10-18T04:51:16;23.90;;;10.43;;
7557;SDS011;3820;51.098;13.716;2022-10-18T04:53:42;25.27;;;12.55;;
7557;SDS011;3820;51.098;13.716;2022-10-18T04:56:09;24.70;;;12.80;;
7557;SDS011;3820;51.098;13.716;2022-10-18T04:58:43;27.93;;;12.37;;
7557;SDS011;3820;51.098;13.716;2022-10-18T05:01:10;24.08;;;12.63;;
7557;SDS011;3820;51.098;13.716;2022-10-18T05:03:36;29.48;;;13.15;;
7557;SDS011;3820;51.098;13.716;2022-10-18T05:06:03;22.67;;;11.30;;
7557;SDS011;3820;51.098;13.716;2022-10-18T05:08:31;27.70;;;11.90;;
7557;SDS011;3820;51.098;13.716;2022-10-18T05:10:58;26.33;;;12.07;;
7557;SDS011;3820;51.098;13.716;2022-10-18T05:13:26;24.38;;;11.80;;
7557;SDS011;3820;51.098;13.716;2022-10-18T05:15:53;22.48;;;11.32;;
7557;SDS011;3820;51.098;13.716;2022-10-18T05:18:19;25.67;;;11.73;;
7557;SDS011;3820;51.098;13.716;2022-10-18T05:20:46;30.70;;;11.23;;
7557;SDS011;3820;51.098;13.716;2022-10-18T05:23:12;20.15;;;10.35;;
7557;SDS011;3820;51.098;13.716;2022-10-18T05:25:39;23.20;;;12.13;;
7557;SDS011;3820;51.098;13.716;2022-10-18T05:28:07;26.02;;;11.23;;
7557;SDS011;3820;51.098;13.716;2022-10-18T05:30:58;24.83;;;11.93;;
7557;SDS011;3820;51.098;13.716;2022-10-18T05:33:26;26.70;;;12.82;;
7557;SDS011;3820;51.098;13.716;2022-10-18T05:35:52;23.92;;;11.70;;
7557;SDS011;3820;51.098;13.716;2022-10-18T05:38:18;24.33;;;10.48;;
7557;SDS011;3820;51.098;13.716;2022-10-18T05:40:45;23.42;;;12.48;;
7557;SDS011;3820;51.098;13.716;2022-10-18T05:43:12;22.33;;;11.43;;
7557;SDS011;3820;51.098;13.716;2022-10-18T05:45:38;20.70;;;10.32;;
7557;SDS011;3820;51.098;13.716;2022-10-18T05:48:05;26.13;;;10.70;;
7557;SDS011;3820;51.098;13.716;2022-10-18T05:50:33;23.38;;;10.98;;
7557;SDS011;3820;51.098;13.716;2022-10-18T05:53:04;25.27;;;11.15;;
7557;SDS011;3820;51.098;13.716;2022-10-18T05:55:49;23.65;;;10.85;;
7557;SDS011;3820;51.098;13.716;2022-10-18T05:58:16;18.48;;;10.52;;
7557;SDS011;3820;51.098;13.716;2022-10-18T06:00:42;23.85;;;11.52;;
7557;SDS011;3820;51.098;13.716;2022-10-18T06:03:08;26.80;;;11.32;;
7557;SDS011;3820;51.098;13.716;2022-10-18T06:05:35;23.35;;;11.18;;
7557;SDS011;3820;51.098;13.716;2022-10-18T06:08:01;21.83;;;11.45;;
7557;SDS011;3820;51.098;13.716;2022-10-18T06:10:34;19.70;;;10.52;;
7557;SDS011;3820;51.098;13.716;2022-10-18T06:13:04;20.58;;;10.32;;
7557;SDS011;3820;51.098;13.716;2022-10-18T06:15:30;24.80;;;11.27;;
7557;SDS011;3820;51.098;13.716;2022-10-18T06:17:57;23.02;;;10.07;;
7557;SDS011;3820;51.098;13.716;2022-10-18T06:20:24;20.08;;;10.57;;
7557;SDS011;3820;51.098;13.716;2022-10-18T06:22:51;25.55;;;12.23;;
7557;SDS011;3820;51.098;13.716;2022-10-18T06:25:18;21.58;;;10.93;;
7557;SDS011;3820;51.098;13.716;2022-10-18T06:27:45;25.35;;;11.30;;
7557;SDS011;3820;51.098;13.716;2022-10-18T06:30:11;23.45;;;10.95;;
7557;SDS011;3820;51.098;13.716;2022-10-18T06:32:38;19.88;;;10.40;;
7557;SDS011;3820;51.098;13.716;2022-10-18T06:35:05;24.27;;;11.57;;
7557;SDS011;3820;51.098;13.716;2022-10-18T06:37:32;22.85;;;11.70;;
7557;SDS011;3820;51.098;13.716;2022-10-18T06:40:00;19.98;;;10.70;;
7557;SDS011;3820;51.098;13.716;2022-10-18T06:42:27;19.60;;;10.27;;
7557;SDS011;3820;51.098;13.716;2022-10-18T06:44:53;19.38;;;9.85;;
7557;SDS011;3820;51.098;13.716;2022-10-18T06:47:20;18.58;;;9.98;;
7557;SDS011;3820;51.098;13.716;2022-10-18T06:49:46;19.95;;;10.07;;
7557;SDS011;3820;51.098;13.716;2022-10-18T06:52:15;18.52;;;9.68;;
7557;SDS011;3820;51.098;13.716;2022-10-18T06:54:42;21.27;;;10.25;;
7557;SDS011;3820;51.098;13.716;2022-10-18T06:57:10;23.70;;;10.98;;
7557;SDS011;3820;51.098;13.716;2022-10-18T06:59:37;20.52;;;10.90;;
7557;SDS011;3820;51.098;13.716;2022-10-18T07:02:03;19.52;;;9.80;;
7557;SDS011;3820;51.098;13.716;2022-10-18T07:04:30;19.45;;;10.05;;
7557;SDS011;3820;51.098;13.716;2022-10-18T07:06:56;19.58;;;9.00;;
7557;SDS011;3820;51.098;13.716;2022-10-18T07:09:23;21.27;;;11.25;;
7557;SDS011;3820;51.098;13.716;2022-10-18T07:11:49;19.45;;;10.25;;
7557;SDS011;3820;51.098;13.716;2022-10-18T07:14:17;19.67;;;10.52;;
7557;SDS011;3820;51.098;13.716;2022-10-18T07:16:44;19.13;;;10.45;;
7557;SDS011;3820;51.098;13.716;2022-10-18T07:19:10;18.23;;;9.27;;
7557;SDS011;3820;51.098;13.716;2022-10-18T07:21:37;16.77;;;8.95;;
7557;SDS011;3820;51.098;13.716;2022-10-18T07:24:03;17.30;;;9.65;;
7557;SDS011;3820;51.098;13.716;2022-10-18T07:26:31;19.75;;;10.93;;
7557;SDS011;3820;51.098;13.716;2022-10-18T07:28:59;19.88;;;10.68;;
7557;SDS011;3820;51.098;13.716;2022-10-18T07:31:34;19.35;;;9.48;;
7557;SDS011;3820;51.098;13.716;2022-10-18T07:34:02;19.27;;;10.38;;
7557;SDS011;3820;51.098;13.716;2022-10-18T07:36:31;17.63;;;9.63;;
7557;SDS011;3820;51.098;13.716;2022-10-18T07:38:58;17.50;;;9.73;;
7557;SDS011;3820;51.098;13.716;2022-10-18T07:41:25;18.90;;;10.90;;
7557;SDS011;3820;51.098;13.716;2022-10-18T07:43:52;15.52;;;9.48;;
7557;SDS011;3820;51.098;13.716;2022-10-18T07:46:19;25.02;;;11.68;;
7557;SDS011;3820;51.098;13.716;2022-10-18T07:48:46;16.00;;;9.18;;
7557;SDS011;3820;51.098;13.716;2022-10-18T07:51:13;17.08;;;8.68;;
7557;SDS011;3820;51.098;13.716;2022-10-18T07:53:41;18.98;;;10.18;;
7557;SDS011;3820;51.098;13.716;2022-10-18T07:56:08;14.52;;;8.70;;
7557;SDS011;3820;51.098;13.716;2022-10-18T07:58:41;16.00;;;9.40;;
7557;SDS011;3820;51.098;13.716;2022-10-18T08:01:08;15.50;;;8.85;;
7557;SDS011;3820;51.098;13.716;2022-10-18T08:03:35;17.80;;;9.65;;
7557;SDS011;3820;51.098;13.716;2022-10-18T08:06:03;19.38;;;9.73;;
7557;SDS011;3820;51.098;13.716;2022-10-18T08:08:31;20.08;;;10.23;;
7557;SDS011;3820;51.098;13.716;2022-10-18T08:11:04;16.42;;;8.25;;
7557;SDS011;3820;51.098;13.716;2022-10-18T08:13:32;19.27;;;9.73;;
7557;SDS011;3820;51.098;13.716;2022-10-18T08:16:00;15.73;;;9.73;;
7557;SDS011;3820;51.098;13.716;2022-10-18T08:18:27;15.90;;;9.07;;
7557;SDS011;3820;51.098;13.716;2022-10-18T08:20:54;15.05;;;8.70;;
7557;SDS011;3820;51.098;13.716;2022-10-18T08:23:20;16.08;;;8.63;;
7557;SDS011;3820;51.098;13.716;2022-10-18T08:25:48;17.00;;;9.57;;
7557;SDS011;3820;51.098;13.716;2022-10-18T08:28:14;16.60;;;9.27;;
7557;SDS011;3820;51.098;13.716;2022-10-18T08:30:44;13.85;;;8.50;;
7557;SDS011;3820;51.098;13.716;2022-10-18T08:33:11;24.10;;;10.10;;
7557;SDS011;3820;51.098;13.716;2022-10-18T08:35:37;14.52;;;9.35;;
7557;SDS011;3820;51.098;13.716;2022-10-18T08:38:04;16.42;;;9.23;;
7557;SDS011;3820;51.098;13.716;2022-10-18T08:40:41;15.23;;;8.75;;
7557;SDS011;3820;51.098;13.716;2022-10-18T08:46:37;18.65;;;9.13;;
7557;SDS011;3820;51.098;13.716;2022-10-18T08:49:09;16.33;;;8.73;;
7557;SDS011;3820;51.098;13.716;2022-10-18T08:51:42;14.50;;;8.50;;
7557;SDS011;3820;51.098;13.716;2022-10-18T08:54:11;14.18;;;8.70;;
7557;SDS011;3820;51.098;13.716;2022-10-18T08:56:40;16.35;;;9.55;;
7557;SDS011;3820;51.098;13.716;2022-10-18T08:59:09;14.82;;;9.07;;
7557;SDS011;3820;51.098;13.716;2022-10-18T09:01:43;16.05;;;9.35;;
7557;SDS011;3820;51.098;13.716;2022-10-18T09:04:39;18.23;;;9.82;;
7557;SDS011;3820;51.098;13.716;2022-10-18T09:07:16;17.60;;;9.18;;
7557;SDS011;3820;51.098;13.716;2022-10-18T09:09:54;14.40;;;9.25;;
7557;SDS011;3820;51.098;13.716;2022-10-18T09:13:01;16.23;;;8.77;;
7557;SDS011;3820;51.098;13.716;2022-10-18T09:16:02;16.55;;;9.65;;
7557;SDS011;3820;51.098;13.716;2022-10-18T09:21:23;19.08;;;9.00;;
7557;SDS011;3820;51.098;13.716;2022-10-18T09:26:32;14.80;;;8.38;;
7557;SDS011;3820;51.098;13.716;2022-10-18T09:36:06;17.27;;;9.07;;
7557;SDS011;3820;51.098;13.716;2022-10-18T09:38:23;20.60;;;10.15;;
7557;SDS011;3820;51.098;13.716;2022-10-18T09:40:57;19.08;;;9.55;;
7557;SDS011;3820;51.098;13.716;2022-10-18T09:43:38;15.65;;;8.85;;
7557;SDS011;3820;51.098;13.716;2022-10-18T09:46:08;17.92;;;9.45;;
7557;SDS011;3820;51.098;13.716;2022-10-18T09:48:45;16.52;;;9.02;;
7557;SDS011;3820;51.098;13.716;2022-10-18T09:51:19;16.30;;;9.38;;
7557;SDS011;3820;51.098;13.716;2022-10-18T09:53:57;15.05;;;8.60;;
7557;SDS011;3820;51.098;13.716;2022-10-18T09:59:30;17.05;;;9.55;;
7557;SDS011;3820;51.098;13.716;2022-10-18T10:01:59;14.10;;;8.27;;
7557;SDS011;3820;51.098;13.716;2022-10-18T10:04:26;16.90;;;9.05;;
7557;SDS011;3820;51.098;13.716;2022-10-18T10:06:53;17.23;;;9.18;;
7557;SDS011;3820;51.098;13.716;2022-10-18T10:17:53;15.63;;;8.77;;
7557;SDS011;3820;51.098;13.716;2022-10-18T10:20:24;17.33;;;8.10;;
7557;SDS011;3820;51.098;13.716;2022-10-18T10:22:56;13.25;;;7.97;;
7557;SDS011;3820;51.098;13.716;2022-10-18T10:25:32;13.48;;;7.72;;
7557;SDS011;3820;51.098;13.716;2022-10-18T10:28:04;16.00;;;8.45;;
7557;SDS011;3820;51.098;13.716;2022-10-18T10:30:36;15.55;;;7.90;;
7557;SDS011;3820;51.098;13.716;2022-10-18T10:33:04;13.73;;;7.93;;
7557;SDS011;3820;51.098;13.716;2022-10-18T10:35:33;14.20;;;7.95;;
7557;SDS011;3820;51.098;13.716;2022-10-18T10:38:23;13.68;;;8.10;;
7557;SDS011;3820;51.098;13.716;2022-10-18T10:40:50;13.60;;;7.28;;
7557;SDS011;3820;51.098;13.716;2022-10-18T10:43:19;14.43;;;8.20;;
7557;SDS011;3820;51.098;13.716;2022-10-18T10:52:02;12.10;;;5.90;;
7557;SDS011;3820;51.098;13.716;2022-10-18T10:54:42;11.73;;;6.55;;
7557;SDS011;3820;51.098;13.716;2022-10-18T10:57:18;12.00;;;6.60;;
7557;SDS011;3820;51.098;13.716;2022-10-18T10:59:55;11.27;;;4.93;;
7557;SDS011;3820;51.098;13.716;2022-10-18T11:04:54;5.80;;;3.70;;
7557;SDS011;3820;51.098;13.716;2022-10-18T11:07:23;5.97;;;3.60;;
7557;SDS011;3820;51.098;13.716;2022-10-18T11:10:06;7.53;;;4.05;;
7557;SDS011;3820;51.098;13.716;2022-10-18T11:12:39;5.57;;;3.38;;
7557;SDS011;3820;51.098;13.716;2022-10-18T11:20:12;3.55;;;2.13;;
7557;SDS011;3820;51.098;13.716;2022-10-18T11:28:24;4.18;;;2.47;;
7557;SDS011;3820;51.098;13.716;2022-10-18T11:36:37;5.03;;;2.67;;
7557;SDS011;3820;51.098;13.716;2022-10-18T11:42:15;3.08;;;1.80;;
7557;SDS011;3820;51.098;13.716;2022-10-18T11:50:15;4.00;;;1.70;;
7557;SDS011;3820;51.098;13.716;2022-10-18T11:52:54;1.73;;;1.52;;
7557;SDS011;3820;51.098;13.716;2022-10-18T12:01:22;1.88;;;1.40;;
7557;SDS011;3820;51.098;13.716;2022-10-18T12:04:08;2.40;;;1.23;;
7557;SDS011;3820;51.098;13.716;2022-10-18T12:06:46;1.80;;;1.25;;
7557;SDS011;3820;51.098;13.716;2022-10-18T12:11:56;2.00;;;1.40;;
7557;SDS011;3820;51.098;13.716;2022-10-18T12:14:29;1.63;;;1.13;;
7557;SDS011;3820;51.098;13.716;2022-10-18T12:17:01;1.05;;;0.75;;
7557;SDS011;3820;51.098;13.716;2022-10-18T12:19:50;0.70;;;0.70;;
7557;SDS011;3820;51.098;13.716;2022-10-18T12:22:26;0.90;;;0.65;;
7557;SDS011;3820;51.098;13.716;2022-10-18T12:24:54;2.25;;;1.00;;
7557;SDS011;3820;51.098;13.716;2022-10-18T12:27:23;1.17;;;1.08;;
7557;SDS011;3820;51.098;13.716;2022-10-18T12:29:57;1.48;;;1.02;;
7557;SDS011;3820;51.098;13.716;2022-10-18T12:32:30;1.55;;;0.90;;
7557;SDS011;3820;51.098;13.716;2022-10-18T12:35:05;1.10;;;0.90;;
7557;SDS011;3820;51.098;13.716;2022-10-18T12:37:55;0.93;;;0.80;;
7557;SDS011;3820;51.098;13.716;2022-10-18T12:40:34;2.35;;;0.90;;
7557;SDS011;3820;51.098;13.716;2022-10-18T12:43:15;2.33;;;1.90;;
7557;SDS011;3820;51.098;13.716;2022-10-18T12:45:51;1.38;;;1.10;;
7557;SDS011;3820;51.098;13.716;2022-10-18T12:48:39;1.33;;;1.08;;
7557;SDS011;3820;51.098;13.716;2022-10-18T12:51:17;1.92;;;1.30;;
7557;SDS011;3820;51.098;13.716;2022-10-18T12:53:45;3.80;;;1.58;;
7557;SDS011;3820;51.098;13.716;2022-10-18T13:09:23;2.00;;;1.50;;
7557;SDS011;3820;51.098;13.716;2022-10-18T13:11:52;1.23;;;1.00;;
7557;SDS011;3820;51.098;13.716;2022-10-18T13:17:43;3.08;;;1.98;;
7557;SDS011;3820;51.098;13.716;2022-10-18T13:20:42;3.55;;;1.67;;
7557;SDS011;3820;51.098;13.716;2022-10-18T13:23:28;1.65;;;0.98;;
7557;SDS011;3820;51.098;13.716;2022-10-18T13:26:24;1.30;;;0.90;;
7557;SDS011;3820;51.098;13.716;2022-10-18T13:31:51;2.67;;;1.55;;
7557;SDS011;3820;51.098;13.716;2022-10-18T13:34:24;3.92;;;2.75;;
7557;SDS011;3820;51.098;13.716;2022-10-18T13:37:04;2.42;;;1.60;;
7557;SDS011;3820;51.098;13.716;2022-10-18T13:39:42;1.25;;;1.10;;
7557;SDS011;3820;51.098;13.716;2022-10-18T13:44:39;1.05;;;0.90;;
7557;SDS011;3820;51.098;13.716;2022-10-18T13:47:08;1.13;;;0.80;;
7557;SDS011;3820;51.098;13.716;2022-10-18T14:04:14;1.73;;;1.08;;
7557;SDS011;3820;51.098;13.716;2022-10-18T14:06:46;1.73;;;0.90;;
7557;SDS011;3820;51.098;13.716;2022-10-18T14:09:17;2.03;;;1.00;;
7557;SDS011;3820;51.098;13.716;2022-10-18T14:17:35;1.13;;;0.75;;
7557;SDS011;3820;51.098;13.716;2022-10-18T14:23:42;1.38;;;1.08;;
7557;SDS011;3820;51.098;13.716;2022-10-18T14:28:40;1.48;;;0.85;;
7557;SDS011;3820;51.098;13.716;2022-10-18T14:31:25;1.20;;;1.00;;
7557;SDS011;3820;51.098;13.716;2022-10-18T14:33:53;3.05;;;1.67;;
7557;SDS011;3820;51.098;13.716;2022-10-18T14:36:34;4.10;;;2.35;;
7557;SDS011;3820;51.098;13.716;2022-10-18T14:39:03;2.15;;;1.50;;
7557;SDS011;3820;51.098;13.716;2022-10-18T14:41:32;3.17;;;1.83;;
7557;SDS011;3820;51.098;13.716;2022-10-18T14:46:41;2.75;;;1.70;;
7557;SDS011;3820;51.098;13.716;2022-10-18T14:49:13;2.10;;;1.58;;
7557;SDS011;3820;51.098;13.716;2022-10-18T14:51:41;1.25;;;1.13;;
7557;SDS011;3820;51.098;13.716;2022-10-18T14:54:13;1.27;;;1.13;;
7557;SDS011;3820;51.098;13.716;2022-10-18T14:56:41;2.42;;;1.13;;
7557;SDS011;3820;51.098;13.716;2022-10-18T14:59:10;1.02;;;0.90;;
7557;SDS011;3820;51.098;13.716;2022-10-18T15:01:49;2.55;;;1.38;;
7557;SDS011;3820;51.098;13.716;2022-10-18T15:04:21;1.40;;;1.10;;
7557;SDS011;3820;51.098;13.716;2022-10-18T15:06:53;1.33;;;1.00;;
7557;SDS011;3820;51.098;13.716;2022-10-18T15:09:20;1.30;;;1.20;;
7557;SDS011;3820;51.098;13.716;2022-10-18T15:11:48;2.28;;;1.08;;
7557;SDS011;3820;51.098;13.716;2022-10-18T15:14:17;2.40;;;1.55;;
7557;SDS011;3820;51.098;13.716;2022-10-18T15:16:44;1.73;;;1.42;;
7557;SDS011;3820;51.098;13.716;2022-10-18T15:24:44;1.60;;;1.17;;
7557;SDS011;3820;51.098;13.716;2022-10-18T15:27:31;8.57;;;2.22;;
7557;SDS011;3820;51.098;13.716;2022-10-18T15:30:08;2.63;;;1.17;;
7557;SDS011;3820;51.098;13.716;2022-10-18T15:32:49;2.53;;;1.33;;
7557;SDS011;3820;51.098;13.716;2022-10-18T15:35:18;1.90;;;1.70;;
7557;SDS011;3820;51.098;13.716;2022-10-18T15:37:56;2.60;;;1.75;;
7557;SDS011;3820;51.098;13.716;2022-10-18T15:40:40;3.35;;;1.70;;
7557;SDS011;3820;51.098;13.716;2022-10-18T15:45:50;1.55;;;1.08;;
7557;SDS011;3820;51.098;13.716;2022-10-18T15:50:53;1.85;;;0.85;;
7557;SDS011;3820;51.098;13.716;2022-10-18T15:55:51;2.40;;;1.45;;
7557;SDS011;3820;51.098;13.716;2022-10-18T15:58:24;1.55;;;1.30;;
7557;SDS011;3820;51.098;13.716;2022-10-18T16:01:00;2.00;;;1.50;;
7557;SDS011;3820;51.098;13.716;2022-10-18T16:03:28;3.00;;;1.70;;
7557;SDS011;3820;51.098;13.716;2022-10-18T16:05:59;2.85;;;1.85;;
7557;SDS011;3820;51.098;13.716;2022-10-18T16:08:29;2.13;;;1.92;;
7557;SDS011;3820;51.098;13.716;2022-10-18T16:10:57;2.65;;;2.15;;
7557;SDS011;3820;51.098;13.716;2022-10-18T16:13:27;3.47;;;2.33;;
7557;SDS011;3820;51.098;13.716;2022-10-18T16:15:54;3.05;;;2.30;;
7557;SDS011;3820;51.098;13.716;2022-10-18T16:18:24;4.88;;;2.00;;
7557;SDS011;3820;51.098;13.716;2022-10-18T16:23:23;3.50;;;2.40;;
7557;SDS011;3820;51.098;13.716;2022-10-18T16:25:53;2.00;;;1.60;;
7557;SDS011;3820;51.098;13.716;2022-10-18T16:28:21;1.95;;;1.63;;
7557;SDS011;3820;51.098;13.716;2022-10-18T16:30:56;3.97;;;1.63;;
7557;SDS011;3820;51.098;13.716;2022-10-18T16:33:29;2.60;;;1.70;;
7557;SDS011;3820;51.098;13.716;2022-10-18T16:35:56;3.03;;;1.70;;
7557;SDS011;3820;51.098;13.716;2022-10-18T16:38:27;1.95;;;1.52;;
7557;SDS011;3820;51.098;13.716;2022-10-18T16:41:02;1.30;;;1.20;;
7557;SDS011;3820;51.098;13.716;2022-10-18T16:43:29;2.30;;;1.60;;
7557;SDS011;3820;51.098;13.716;2022-10-18T16:45:56;2.97;;;1.95;;
7557;SDS011;3820;51.098;13.716;2022-10-18T16:48:23;2.78;;;1.58;;
7557;SDS011;3820;51.098;13.716;2022-10-18T16:50:52;4.60;;;2.97;;
7557;SDS011;3820;51.098;13.716;2022-10-18T16:53:20;4.45;;;3.03;;
7557;SDS011;3820;51.098;13.716;2022-10-18T16:55:58;4.97;;;3.42;;
7557;SDS011;3820;51.098;13.716;2022-10-18T16:58:26;6.97;;;4.00;;
7557;SDS011;3820;51.098;13.716;2022-10-18T17:00:53;8.13;;;5.07;;
7557;SDS011;3820;51.098;13.716;2022-10-18T17:03:20;14.65;;;6.45;;
7557;SDS011;3820;51.098;13.716;2022-10-18T17:05:46;9.02;;;4.57;;
7557;SDS011;3820;51.098;13.716;2022-10-18T17:08:20;6.60;;;3.72;;
7557;SDS011;3820;51.098;13.716;2022-10-18T17:10:51;6.47;;;4.07;;
7557;SDS011;3820;51.098;13.716;2022-10-18T17:13:20;9.10;;;4.72;;
7557;SDS011;3820;51.098;13.716;2022-10-18T17:15:48;6.75;;;3.72;;
7557;SDS011;3820;51.098;13.716;2022-10-18T17:18:16;7.63;;;4.10;;
7557;SDS011;3820;51.098;13.716;2022-10-18T17:20:45;6.20;;;3.22;;
7557;SDS011;3820;51.098;13.716;2022-10-18T17:23:11;5.43;;;2.88;;
7557;SDS011;3820;51.098;13.716;2022-10-18T17:25:39;5.22;;;3.15;;
7557;SDS011;3820;51.098;13.716;2022-10-18T17:28:29;5.88;;;3.75;;
7557;SDS011;3820;51.098;13.716;2022-10-18T17:30:56;6.35;;;4.07;;
7557;SDS011;3820;51.098;13.716;2022-10-18T17:33:24;6.18;;;3.22;;
7557;SDS011;3820;51.098;13.716;2022-10-18T17:35:51;6.10;;;3.78;;
7557;SDS011;3820;51.098;13.716;2022-10-18T17:38:18;5.32;;;3.53;;
7557;SDS011;3820;51.098;13.716;2022-10-18T17:40:44;4.93;;;3.47;;